Time,TemperatureF,DewpointF,PressureIn,WindDirection,WindDirectionDegrees,WindSpeedMPH,WindSpeedGustMPH,Humidity,HourlyPrecipIn,Conditions,Clouds,dailyrainin,SoftwareType,DateUTC
2013-01-31 00:03:00,44.7,36.9,30.10,WNW,282,0.0,1.0,74,0.00,,OVC,0.00,VWS V14.00,2013-01-31 06:03:00,
2013-01-31 00:08:00,44.5,36.7,30.11,WNW,302,4.0,5.0,74,0.00,,OVC,0.00,VWS V14.00,2013-01-31 06:08:00,
2013-01-31 00:13:00,44.4,36.7,30.10,West,280,2.0,6.0,74,0.00,,OVC,0.00,VWS V14.00,2013-01-31 06:13:00,
2013-01-31 00:18:00,44.3,36.2,30.11,NNW,333,2.0,5.0,73,0.00,,OVC,0.00,VWS V14.00,2013-01-31 06:18:00,
2013-01-31 00:23:00,44.2,36.1,30.11,NNW,329,5.0,7.0,73,0.00,,OVC,0.00,VWS V14.00,2013-01-31 06:23:00,
2013-01-31 00:28:00,44.1,35.7,30.11,North,355,0.0,5.0,72,0.00,,OVC,0.00,VWS V14.00,2013-01-31 06:28:00,
2013-01-31 00:33:00,44.1,35.7,30.11,WNW,292,0.0,2.0,72,0.00,,OVC,0.00,VWS V14.00,2013-01-31 06:33:00,
2013-01-31 00:38:00,44.1,35.7,30.11,WNW,285,5.0,7.0,72,0.00,,OVC,0.00,VWS V14.00,2013-01-31 06:38:00,
2013-01-31 00:43:00,44.0,35.2,30.11,North,5,0.0,4.0,71,0.00,,OVC,0.00,VWS V14.00,2013-01-31 06:43:00,
2013-01-31 00:48:00,43.9,35.1,30.11,NNW,327,4.0,7.0,71,0.00,,OVC,0.00,VWS V14.00,2013-01-31 06:48:00,
2013-01-31 00:53:00,43.8,35.0,30.11,NW,315,0.0,4.0,71,0.00,,OVC,0.00,VWS V14.00,2013-01-31 06:53:00,
2013-01-31 00:58:00,43.7,34.9,30.12,NNW,338,3.0,10.0,71,0.00,,OVC,0.00,VWS V14.00,2013-01-31 06:58:00,
2013-01-31 01:03:00,43.7,34.6,30.12,North,351,1.0,4.0,70,0.00,,OVC,0.00,VWS V14.00,2013-01-31 07:03:00,
2013-01-31 01:08:00,43.7,34.9,30.13,NNW,344,2.0,4.0,71,0.00,,OVC,0.00,VWS V14.00,2013-01-31 07:08:00,
2013-01-31 01:13:00,43.6,34.8,30.13,NNW,344,3.0,6.0,71,0.00,,OVC,0.00,VWS V14.00,2013-01-31 07:13:00,
2013-01-31 01:18:00,43.5,34.7,30.13,NW,309,2.0,2.0,71,0.00,,OVC,0.00,VWS V14.00,2013-01-31 07:18:00,
2013-01-31 01:23:00,43.4,34.6,30.13,NW,314,0.0,4.0,71,0.00,,OVC,0.00,VWS V14.00,2013-01-31 07:23:00,
2013-01-31 01:28:00,43.3,34.5,30.13,North,5,0.0,0.0,71,0.00,,OVC,0.00,VWS V14.00,2013-01-31 07:28:00,
2013-01-31 01:33:00,43.3,34.5,30.13,WNW,300,1.0,5.0,71,0.00,,OVC,0.00,VWS V14.00,2013-01-31 07:33:00,
2013-01-31 01:38:00,43.1,34.7,30.13,WNW,292,0.0,0.0,72,0.00,,OVC,0.00,VWS V14.00,2013-01-31 07:38:00,
2013-01-31 01:43:00,43.0,34.2,30.13,NNE,18,0.0,3.0,71,0.00,,OVC,0.00,VWS V14.00,2013-01-31 07:43:00,
2013-01-31 01:48:00,42.9,34.5,30.13,NNW,348,2.0,2.0,72,0.00,,OVC,0.00,VWS V14.00,2013-01-31 07:48:00,
2013-01-31 01:53:00,42.7,34.3,30.13,WNW,301,0.0,0.0,72,0.00,,OVC,0.00,VWS V14.00,2013-01-31 07:53:00,
2013-01-31 01:58:00,42.7,34.3,30.14,NNW,339,0.0,3.0,72,0.00,,OVC,0.00,VWS V14.00,2013-01-31 07:58:00,
2013-01-31 02:03:00,42.5,34.1,30.14,NNW,338,0.0,3.0,72,0.00,,OVC,0.00,VWS V14.00,2013-01-31 08:03:00,
2013-01-31 02:08:00,42.4,34.0,30.14,NNW,342,0.0,2.0,72,0.00,,OVC,0.00,VWS V14.00,2013-01-31 08:08:00,
2013-01-31 02:13:00,42.4,34.0,30.14,West,278,0.0,6.0,72,0.00,,OVC,0.00,VWS V14.00,2013-01-31 08:13:00,
2013-01-31 02:18:00,42.3,33.9,30.14,NNW,346,0.0,2.0,72,0.00,,OVC,0.00,VWS V14.00,2013-01-31 08:18:00,
2013-01-31 02:23:00,42.2,33.8,30.14,WNW,286,0.0,3.0,72,0.00,,OVC,0.00,VWS V14.00,2013-01-31 08:23:00,
2013-01-31 02:28:00,42.2,33.8,30.14,West,280,0.0,0.0,72,0.00,,OVC,0.00,VWS V14.00,2013-01-31 08:28:00,
2013-01-31 02:33:00,42.1,33.7,30.15,WNW,294,0.0,4.0,72,0.00,,OVC,0.00,VWS V14.00,2013-01-31 08:33:00,
2013-01-31 02:38:00,42.0,33.6,30.15,NNE,25,2.0,3.0,72,0.00,,OVC,0.00,VWS V14.00,2013-01-31 08:38:00,
2013-01-31 02:43:00,41.9,33.5,30.14,West,269,0.0,0.0,72,0.00,,OVC,0.00,VWS V14.00,2013-01-31 08:43:00,
2013-01-31 02:48:00,41.8,33.5,30.15,WNW,298,0.0,5.0,72,0.00,,OVC,0.00,VWS V14.00,2013-01-31 08:48:00,
2013-01-31 02:53:00,41.8,33.5,30.15,WNW,299,0.0,1.0,72,0.00,,OVC,0.00,VWS V14.00,2013-01-31 08:53:00,
2013-01-31 02:58:00,41.7,33.3,30.15,West,265,4.0,5.0,72,0.00,,OVC,0.00,VWS V14.00,2013-01-31 08:58:00,
2013-01-31 03:03:00,41.6,33.6,30.15,West,273,2.0,6.0,73,0.00,,OVC,0.00,VWS V14.00,2013-01-31 09:03:00,
2013-01-31 03:08:00,41.5,33.5,30.15,West,272,0.0,0.0,73,0.00,,OVC,0.00,VWS V14.00,2013-01-31 09:08:00,
2013-01-31 03:13:00,41.4,33.4,30.15,WNW,292,0.0,0.0,73,0.00,,OVC,0.00,VWS V14.00,2013-01-31 09:13:00,
2013-01-31 03:18:00,41.3,33.7,30.15,WNW,282,0.0,0.0,74,0.00,,OVC,0.00,VWS V14.00,2013-01-31 09:18:00,
2013-01-31 03:23:00,41.2,33.5,30.16,WNW,286,0.0,0.0,74,0.00,,OVC,0.00,VWS V14.00,2013-01-31 09:23:00,
2013-01-31 03:28:00,41.1,33.5,30.15,NW,307,0.0,0.0,74,0.00,,OVC,0.00,VWS V14.00,2013-01-31 09:28:00,
2013-01-31 03:33:00,40.9,33.6,30.15,NW,325,3.0,4.0,75,0.00,,OVC,0.00,VWS V14.00,2013-01-31 09:33:00,
2013-01-31 03:38:00,40.8,33.5,30.15,WNW,284,0.0,1.0,75,0.00,,OVC,0.00,VWS V14.00,2013-01-31 09:38:00,
2013-01-31 03:43:00,40.7,33.4,30.16,WNW,283,0.0,0.0,75,0.00,,OVC,0.00,VWS V14.00,2013-01-31 09:43:00,
2013-01-31 03:48:00,40.6,33.6,30.16,WNW,290,0.0,0.0,76,0.00,,OVC,0.00,VWS V14.00,2013-01-31 09:48:00,
2013-01-31 03:53:00,40.5,33.5,30.15,NW,311,0.0,0.0,76,0.00,,OVC,0.00,VWS V14.00,2013-01-31 09:53:00,
2013-01-31 03:58:00,40.4,33.5,30.13,NW,317,0.0,0.0,76,0.00,,OVC,0.00,VWS V14.00,2013-01-31 09:58:00,
2013-01-31 04:03:00,40.2,33.6,30.13,WNW,294,1.0,1.0,77,0.00,,OVC,0.00,VWS V14.00,2013-01-31 10:03:00,
2013-01-31 04:08:00,40.1,33.5,30.15,WNW,296,0.0,0.0,77,0.00,,OVC,0.00,VWS V14.00,2013-01-31 10:08:00,
2013-01-31 04:13:00,40.0,33.4,30.16,WNW,296,0.0,0.0,77,0.00,,OVC,0.00,VWS V14.00,2013-01-31 10:13:00,
2013-01-31 04:18:00,39.9,33.3,30.16,WNW,296,0.0,0.0,77,0.00,,OVC,0.00,VWS V14.00,2013-01-31 10:18:00,
2013-01-31 04:23:00,39.8,33.5,30.15,WNW,296,0.0,0.0,78,0.00,,OVC,0.00,VWS V14.00,2013-01-31 10:23:00,
2013-01-31 04:28:00,39.6,33.3,30.15,WNW,298,0.0,0.0,78,0.00,,OVC,0.00,VWS V14.00,2013-01-31 10:28:00,
2013-01-31 04:33:00,39.4,33.4,30.15,NW,319,0.0,0.0,79,0.00,,OVC,0.00,VWS V14.00,2013-01-31 10:33:00,
2013-01-31 04:38:00,39.3,33.3,30.15,NW,319,0.0,0.0,79,0.00,,OVC,0.00,VWS V14.00,2013-01-31 10:38:00,
2013-01-31 04:43:00,39.2,33.2,30.16,NW,319,0.0,0.0,79,0.00,,OVC,0.00,VWS V14.00,2013-01-31 10:43:00,
2013-01-31 04:48:00,39.0,33.0,30.16,NW,319,0.0,0.0,79,0.00,,OVC,0.00,VWS V14.00,2013-01-31 10:48:00,
2013-01-31 04:53:00,38.9,33.3,30.16,NW,319,0.0,0.0,80,0.00,,OVC,0.00,VWS V14.00,2013-01-31 10:53:00,
2013-01-31 04:58:00,38.8,33.2,30.16,NW,319,0.0,0.0,80,0.00,,OVC,0.00,VWS V14.00,2013-01-31 10:58:00,
2013-01-31 05:03:00,38.6,33.0,30.17,NW,319,0.0,0.0,80,0.00,,OVC,0.00,VWS V14.00,2013-01-31 11:03:00,
2013-01-31 05:08:00,38.5,32.9,30.17,NW,319,0.0,0.0,80,0.00,,OVC,0.00,VWS V14.00,2013-01-31 11:08:00,
2013-01-31 05:13:00,38.3,32.7,30.16,NW,319,0.0,0.0,80,0.00,,OVC,0.00,VWS V14.00,2013-01-31 11:13:00,
2013-01-31 05:18:00,38.1,32.5,30.17,NW,319,0.0,0.0,80,0.00,,OVC,0.00,VWS V14.00,2013-01-31 11:18:00,
2013-01-31 05:23:00,37.9,32.6,30.17,NW,319,0.0,0.0,81,0.00,,OVC,0.00,VWS V14.00,2013-01-31 11:23:00,
2013-01-31 05:28:00,37.7,32.4,30.17,NW,319,0.0,0.0,81,0.00,,OVC,0.00,VWS V14.00,2013-01-31 11:28:00,
2013-01-31 05:33:00,37.5,32.5,30.17,NW,319,0.0,0.0,82,0.00,,OVC,0.00,VWS V14.00,2013-01-31 11:33:00,
2013-01-31 05:38:00,37.4,32.4,30.17,NW,319,0.0,0.0,82,0.00,,OVC,0.00,VWS V14.00,2013-01-31 11:38:00,
2013-01-31 05:43:00,37.3,32.3,30.18,NW,319,0.0,0.0,82,0.00,,OVC,0.00,VWS V14.00,2013-01-31 11:43:00,
2013-01-31 05:48:00,37.1,32.1,30.18,NW,319,0.0,0.0,82,0.00,,OVC,0.00,VWS V14.00,2013-01-31 11:48:00,
2013-01-31 05:53:00,37.0,32.3,30.18,NW,319,0.0,0.0,83,0.00,,OVC,0.00,VWS V14.00,2013-01-31 11:53:00,
2013-01-31 05:58:00,36.9,32.2,30.18,NW,319,0.0,0.0,83,0.00,,OVC,0.00,VWS V14.00,2013-01-31 11:58:00,
2013-01-31 06:03:00,36.7,32.3,30.18,NW,319,0.0,0.0,84,0.00,,OVC,0.00,VWS V14.00,2013-01-31 12:03:00,
2013-01-31 06:08:00,36.5,32.1,30.19,NW,319,0.0,0.0,84,0.00,,OVC,0.00,VWS V14.00,2013-01-31 12:08:00,
2013-01-31 06:13:00,36.3,31.9,30.18,NW,319,0.0,0.0,84,0.00,,OVC,0.00,VWS V14.00,2013-01-31 12:13:00,
2013-01-31 06:18:00,36.1,31.7,30.19,NW,319,0.0,0.0,84,0.00,,OVC,0.00,VWS V14.00,2013-01-31 12:18:00,
2013-01-31 06:23:00,35.9,31.5,30.19,NW,319,0.0,0.0,84,0.00,,OVC,0.00,VWS V14.00,2013-01-31 12:23:00,
2013-01-31 06:28:00,35.7,31.6,30.19,NW,319,0.0,0.0,85,0.00,,OVC,0.00,VWS V14.00,2013-01-31 12:28:00,
2013-01-31 06:33:00,35.5,31.5,30.19,NW,319,0.0,0.0,85,0.00,,OVC,0.00,VWS V14.00,2013-01-31 12:33:00,
2013-01-31 06:38:00,35.3,31.2,30.19,NW,319,0.0,0.0,85,0.00,,OVC,0.00,VWS V14.00,2013-01-31 12:38:00,
2013-01-31 06:43:00,35.1,31.0,30.19,NW,319,0.0,0.0,85,0.00,,OVC,0.00,VWS V14.00,2013-01-31 12:43:00,
2013-01-31 06:48:00,35.0,31.0,30.20,NW,319,0.0,0.0,85,0.00,,OVC,0.00,VWS V14.00,2013-01-31 12:48:00,
2013-01-31 06:53:00,34.8,31.3,30.20,NW,319,0.0,0.0,87,0.00,,OVC,0.00,VWS V14.00,2013-01-31 12:53:00,
2013-01-31 06:58:00,34.7,31.2,30.20,NW,319,0.0,0.0,87,0.00,,OVC,0.00,VWS V14.00,2013-01-31 12:58:00,
2013-01-31 07:03:00,34.7,31.5,30.21,NW,319,0.0,0.0,88,0.00,,OVC,0.00,VWS V14.00,2013-01-31 13:03:00,
2013-01-31 07:08:00,34.7,31.5,30.21,WNW,302,0.0,0.0,88,0.00,,OVC,0.00,VWS V14.00,2013-01-31 13:08:00,
2013-01-31 07:13:00,34.8,31.9,30.21,WNW,302,0.0,0.0,89,0.00,,OVC,0.00,VWS V14.00,2013-01-31 13:13:00,
2013-01-31 07:18:00,35.0,32.1,30.21,WNW,302,0.0,0.0,89,0.00,,OVC,0.00,VWS V14.00,2013-01-31 13:18:00,
2013-01-31 07:23:00,35.1,32.2,30.21,WNW,302,0.0,0.0,89,0.00,,OVC,0.00,VWS V14.00,2013-01-31 13:23:00,
2013-01-31 07:28:00,35.2,32.3,30.22,WNW,302,0.0,0.0,89,0.00,,OVC,0.00,VWS V14.00,2013-01-31 13:28:00,
2013-01-31 07:33:00,35.3,32.4,30.22,WNW,302,0.0,0.0,89,0.00,,OVC,0.00,VWS V14.00,2013-01-31 13:33:00,
2013-01-31 07:38:00,35.4,32.8,30.22,WNW,302,0.0,0.0,90,0.00,,OVC,0.00,VWS V14.00,2013-01-31 13:38:00,
2013-01-31 07:43:00,35.6,33.0,30.22,WNW,299,0.0,0.0,90,0.00,,OVC,0.00,VWS V14.00,2013-01-31 13:43:00,
2013-01-31 07:48:00,36.0,33.4,30.23,West,275,0.0,3.0,90,0.00,,OVC,0.00,VWS V14.00,2013-01-31 13:48:00,
2013-01-31 07:53:00,36.5,34.1,30.23,West,277,1.0,4.0,91,0.00,,OVC,0.00,VWS V14.00,2013-01-31 13:53:00,
2013-01-31 07:58:00,37.3,34.6,30.23,West,268,4.0,4.0,90,0.00,,OVC,0.00,VWS V14.00,2013-01-31 13:58:00,
2013-01-31 08:03:00,38.2,35.5,30.24,West,259,0.0,3.0,90,0.00,,OVC,0.00,VWS V14.00,2013-01-31 14:03:00,
2013-01-31 08:08:00,38.9,35.7,30.23,West,269,3.0,3.0,88,0.00,,OVC,0.00,VWS V14.00,2013-01-31 14:08:00,
2013-01-31 08:13:00,39.7,36.2,30.24,NW,317,0.0,0.0,87,0.00,,OVC,0.00,VWS V14.00,2013-01-31 14:13:00,
2013-01-31 08:18:00,40.6,36.5,30.24,WNW,292,0.0,5.0,85,0.00,,OVC,0.00,VWS V14.00,2013-01-31 14:18:00,
2013-01-31 08:23:00,41.6,36.8,30.24,NNW,340,0.0,5.0,83,0.00,,OVC,0.00,VWS V14.00,2013-01-31 14:23:00,
2013-01-31 08:28:00,42.6,37.2,30.24,NNE,23,1.0,5.0,81,0.00,,OVC,0.00,VWS V14.00,2013-01-31 14:28:00,
2013-01-31 08:33:00,43.4,37.0,30.25,West,279,2.0,4.0,78,0.00,,OVC,0.00,VWS V14.00,2013-01-31 14:33:00,
2013-01-31 08:38:00,44.2,36.8,30.25,West,277,3.0,5.0,75,0.00,,OVC,0.00,VWS V14.00,2013-01-31 14:38:00,
2013-01-31 08:43:00,44.7,36.9,30.25,West,279,0.0,0.0,74,0.00,,OVC,0.00,VWS V14.00,2013-01-31 14:43:00,
2013-01-31 08:48:00,45.2,36.7,30.25,North,349,0.0,6.0,72,0.00,,OVC,0.00,VWS V14.00,2013-01-31 14:48:00,
2013-01-31 08:53:00,45.8,36.6,30.26,WSW,252,3.0,3.0,70,0.00,,OVC,0.00,VWS V14.00,2013-01-31 14:53:00,
2013-01-31 08:58:00,46.4,36.0,30.26,North,11,2.0,3.0,67,0.00,,OVC,0.00,VWS V14.00,2013-01-31 14:58:00,
2013-01-31 09:03:00,47.0,36.2,30.26,West,266,3.0,10.0,66,0.00,,OVC,0.00,VWS V14.00,2013-01-31 15:03:00,
2013-01-31 09:08:00,47.5,36.3,30.26,WNW,282,0.0,7.0,65,0.00,,OVC,0.00,VWS V14.00,2013-01-31 15:08:00,
2013-01-31 09:13:00,47.9,35.5,30.26,NNW,344,0.0,0.0,62,0.00,,OVC,0.00,VWS V14.00,2013-01-31 15:13:00,
2013-01-31 09:18:00,48.3,35.9,30.26,NNE,14,5.0,6.0,62,0.00,,OVC,0.00,VWS V14.00,2013-01-31 15:18:00,
2013-01-31 09:23:00,48.7,35.5,30.27,WSW,244,1.0,4.0,60,0.00,,OVC,0.00,VWS V14.00,2013-01-31 15:23:00,
2013-01-31 09:28:00,49.0,34.5,30.27,NNE,19,0.0,4.0,57,0.00,,OVC,0.00,VWS V14.00,2013-01-31 15:28:00,
2013-01-31 09:33:00,49.5,35.3,30.26,North,11,4.0,5.0,58,0.00,,OVC,0.00,VWS V14.00,2013-01-31 15:33:00,
2013-01-31 09:38:00,49.7,35.1,30.26,NW,325,3.0,9.0,57,0.00,,OVC,0.00,VWS V14.00,2013-01-31 15:38:00,
2013-01-31 09:43:00,50.0,34.9,30.26,West,270,0.0,11.0,56,0.00,,OVC,0.00,VWS V14.00,2013-01-31 15:43:00,
2013-01-31 09:48:00,50.4,33.9,30.26,NNW,341,0.0,6.0,53,0.00,,OVC,0.00,VWS V14.00,2013-01-31 15:48:00,
2013-01-31 09:53:00,50.7,33.2,30.26,WNW,299,7.0,7.0,51,0.00,,OVC,0.00,VWS V14.00,2013-01-31 15:53:00,
2013-01-31 09:58:00,51.0,33.5,30.27,NNE,13,1.0,11.0,51,0.00,,OVC,0.00,VWS V14.00,2013-01-31 15:58:00,
2013-01-31 10:03:00,51.3,32.3,30.27,North,5,6.0,14.0,48,0.00,,OVC,0.00,VWS V14.00,2013-01-31 16:03:00,
2013-01-31 10:08:00,51.6,32.6,30.27,NW,316,4.0,12.0,48,0.00,,OVC,0.00,VWS V14.00,2013-01-31 16:08:00,
2013-01-31 10:13:00,51.8,33.3,30.27,NNW,336,7.0,7.0,49,0.00,,OVC,0.00,VWS V14.00,2013-01-31 16:13:00,
2013-01-31 10:18:00,52.0,31.9,30.27,North,355,3.0,11.0,46,0.00,,OVC,0.00,VWS V14.00,2013-01-31 16:18:00,
2013-01-31 10:23:00,52.2,32.6,30.27,NNW,332,4.0,6.0,47,0.00,,OVC,0.00,VWS V14.00,2013-01-31 16:23:00,
2013-01-31 10:28:00,52.6,33.0,30.28,WNW,291,15.0,15.0,47,0.00,,OVC,0.00,VWS V14.00,2013-01-31 16:28:00,
2013-01-31 10:33:00,52.7,32.0,30.27,NNE,16,9.0,9.0,45,0.00,,OVC,0.00,VWS V14.00,2013-01-31 16:33:00,
2013-01-31 10:38:00,52.9,32.7,30.27,NNE,22,9.0,11.0,46,0.00,,OVC,0.00,VWS V14.00,2013-01-31 16:38:00,
2013-01-31 10:43:00,53.1,32.3,30.27,North,355,3.0,14.0,45,0.00,,OVC,0.00,VWS V14.00,2013-01-31 16:43:00,
2013-01-31 10:48:00,53.1,31.8,30.27,NE,44,8.0,11.0,44,0.00,,OVC,0.00,VWS V14.00,2013-01-31 16:48:00,
2013-01-31 10:53:00,53.0,33.3,30.27,NE,49,7.0,12.0,47,0.00,,OVC,0.00,VWS V14.00,2013-01-31 16:53:00,
2013-01-31 10:58:00,53.4,35.2,30.27,NNE,28,9.0,9.0,50,0.00,,OVC,0.00,VWS V14.00,2013-01-31 16:58:00,
2013-01-31 11:03:00,53.6,32.2,30.27,NNE,17,6.0,16.0,44,0.00,,OVC,0.00,VWS V14.00,2013-01-31 17:03:00,
2013-01-31 11:08:00,53.7,32.9,30.27,North,11,4.0,9.0,45,0.00,,OVC,0.00,VWS V14.00,2013-01-31 17:08:00,
2013-01-31 11:13:00,54.0,32.6,30.27,NNE,17,4.0,6.0,44,0.00,,OVC,0.00,VWS V14.00,2013-01-31 17:13:00,
2013-01-31 11:18:00,54.3,31.7,30.26,North,5,3.0,10.0,42,0.00,,OVC,0.00,VWS V14.00,2013-01-31 17:18:00,
2013-01-31 11:23:00,54.5,32.5,30.26,NE,49,1.0,6.0,43,0.00,,OVC,0.00,VWS V14.00,2013-01-31 17:23:00,
2013-01-31 11:28:00,55.1,31.8,30.26,NE,42,2.0,3.0,41,0.00,,OVC,0.00,VWS V14.00,2013-01-31 17:28:00,
2013-01-31 11:33:00,55.6,32.9,30.26,NNW,331,8.0,12.0,42,0.00,,OVC,0.00,VWS V14.00,2013-01-31 17:33:00,
2013-01-31 11:38:00,56.0,33.2,30.26,NE,44,7.0,11.0,42,0.00,,OVC,0.00,VWS V14.00,2013-01-31 17:38:00,
2013-01-31 11:43:00,56.1,32.1,30.25,NNW,327,9.0,10.0,40,0.00,,OVC,0.00,VWS V14.00,2013-01-31 17:43:00,
2013-01-31 11:48:00,56.3,33.5,30.26,North,11,4.0,6.0,42,0.00,,OVC,0.00,VWS V14.00,2013-01-31 17:48:00,
2013-01-31 11:53:00,56.3,31.0,30.25,NNE,23,4.0,12.0,38,0.00,,OVC,0.00,VWS V14.00,2013-01-31 17:53:00,
2013-01-31 11:58:00,56.3,31.7,30.25,West,277,0.0,6.0,39,0.00,,OVC,0.00,VWS V14.00,2013-01-31 17:58:00,
2013-01-31 12:03:00,56.3,31.0,30.25,North,5,0.0,6.0,38,0.00,,OVC,0.00,VWS V14.00,2013-01-31 18:03:00,
2013-01-31 12:08:00,56.3,31.0,30.25,NNW,329,0.0,9.0,38,0.00,,OVC,0.00,VWS V14.00,2013-01-31 18:08:00,
2013-01-31 12:13:00,56.4,31.8,30.25,North,355,1.0,10.0,39,0.00,,OVC,0.00,VWS V14.00,2013-01-31 18:13:00,
2013-01-31 12:18:00,56.9,31.6,30.24,WSW,246,0.0,16.0,38,0.00,,OVC,0.00,VWS V14.00,2013-01-31 18:18:00,
2013-01-31 12:23:00,57.1,31.1,30.24,NW,315,1.0,10.0,37,0.00,,OVC,0.00,VWS V14.00,2013-01-31 18:23:00,
2013-01-31 12:28:00,57.4,31.4,30.24,NNW,335,3.0,6.0,37,0.00,,OVC,0.00,VWS V14.00,2013-01-31 18:28:00,
2013-01-31 12:33:00,57.6,32.2,30.24,North,10,11.0,16.0,38,0.00,,OVC,0.00,VWS V14.00,2013-01-31 18:33:00,
2013-01-31 12:38:00,57.7,31.0,30.23,NNW,348,1.0,4.0,36,0.00,,OVC,0.00,VWS V14.00,2013-01-31 18:38:00,
2013-01-31 12:43:00,58.0,31.2,30.23,North,5,2.0,9.0,36,0.00,,OVC,0.00,VWS V14.00,2013-01-31 18:43:00,
2013-01-31 12:48:00,58.1,31.3,30.23,NW,320,1.0,7.0,36,0.00,,OVC,0.00,VWS V14.00,2013-01-31 18:48:00,
2013-01-31 12:53:00,58.2,31.4,30.23,North,349,0.0,4.0,36,0.00,,OVC,0.00,VWS V14.00,2013-01-31 18:53:00,
2013-01-31 12:58:00,58.3,32.2,30.22,WNW,295,2.0,4.0,37,0.00,,OVC,0.00,VWS V14.00,2013-01-31 18:58:00,
2013-01-31 13:03:00,58.6,31.8,30.22,North,355,0.0,6.0,36,0.00,,OVC,0.00,VWS V14.00,2013-01-31 19:03:00,
2013-01-31 13:08:00,58.6,31.8,30.22,NW,318,9.0,11.0,36,0.00,,OVC,0.00,VWS V14.00,2013-01-31 19:08:00,
2013-01-31 13:13:00,58.4,30.2,30.21,WNW,292,4.0,15.0,34,0.00,,OVC,0.00,VWS V14.00,2013-01-31 19:13:00,
2013-01-31 13:18:00,58.3,30.8,30.21,NNW,331,3.0,10.0,35,0.00,,OVC,0.00,VWS V14.00,2013-01-31 19:18:00,
2013-01-31 13:23:00,58.3,30.1,30.21,North,360,2.0,7.0,34,0.00,,OVC,0.00,VWS V14.00,2013-01-31 19:23:00,
2013-01-31 13:28:00,58.6,31.8,30.21,WNW,286,2.0,12.0,36,0.00,,OVC,0.00,VWS V14.00,2013-01-31 19:28:00,
2013-01-31 13:33:00,59.1,32.2,30.21,WNW,290,1.0,4.0,36,0.00,,OVC,0.00,VWS V14.00,2013-01-31 19:33:00,
2013-01-31 13:38:00,59.5,31.1,30.21,NNE,19,5.0,9.0,34,0.00,,OVC,0.00,VWS V14.00,2013-01-31 19:38:00,
2013-01-31 13:43:00,59.6,31.9,30.21,NNW,331,0.0,7.0,35,0.00,,OVC,0.00,VWS V14.00,2013-01-31 19:43:00,
2013-01-31 13:48:00,59.8,31.4,30.21,North,360,5.0,10.0,34,0.00,,OVC,0.00,VWS V14.00,2013-01-31 19:48:00,
2013-01-31 13:53:00,59.8,32.1,30.20,NNE,12,9.0,9.0,35,0.00,,OVC,0.00,VWS V14.00,2013-01-31 19:53:00,
2013-01-31 13:58:00,59.6,31.2,30.21,North,355,0.0,13.0,34,0.00,,OVC,0.00,VWS V14.00,2013-01-31 19:58:00,
2013-01-31 14:03:00,59.6,31.2,30.21,NNE,19,0.0,10.0,34,0.00,,OVC,0.00,VWS V14.00,2013-01-31 20:03:00,
2013-01-31 14:08:00,59.7,32.7,30.21,North,355,3.0,4.0,36,0.00,,OVC,0.00,VWS V14.00,2013-01-31 20:08:00,
2013-01-31 14:13:00,59.9,32.2,30.20,NNE,24,3.0,9.0,35,0.00,,OVC,0.00,VWS V14.00,2013-01-31 20:13:00,
2013-01-31 14:18:00,59.8,29.9,30.20,NNW,327,4.0,8.0,32,0.00,,OVC,0.00,VWS V14.00,2013-01-31 20:18:00,
2013-01-31 14:23:00,59.8,31.4,30.20,NW,308,1.0,3.0,34,0.00,,OVC,0.00,VWS V14.00,2013-01-31 20:23:00,
2013-01-31 14:28:00,60.1,31.7,30.20,NNE,33,3.0,11.0,34,0.00,,OVC,0.00,VWS V14.00,2013-01-31 20:28:00,
2013-01-31 14:33:00,60.0,30.8,30.21,NNW,346,0.0,6.0,33,0.00,,OVC,0.00,VWS V14.00,2013-01-31 20:33:00,
2013-01-31 14:38:00,60.0,32.3,30.21,West,273,1.0,5.0,35,0.00,,OVC,0.00,VWS V14.00,2013-01-31 20:38:00,
2013-01-31 14:43:00,60.2,31.0,30.21,NNE,20,6.0,8.0,33,0.00,,OVC,0.00,VWS V14.00,2013-01-31 20:43:00,
2013-01-31 14:48:00,60.2,31.8,30.21,North,351,6.0,6.0,34,0.00,,OVC,0.00,VWS V14.00,2013-01-31 20:48:00,
2013-01-31 14:53:00,60.1,31.7,30.21,NNE,18,3.0,5.0,34,0.00,,OVC,0.00,VWS V14.00,2013-01-31 20:53:00,
2013-01-31 14:58:00,60.2,32.5,30.21,North,349,1.0,5.0,35,0.00,,OVC,0.00,VWS V14.00,2013-01-31 20:58:00,
2013-01-31 15:03:00,60.4,31.9,30.21,North,5,0.0,3.0,34,0.00,,OVC,0.00,VWS V14.00,2013-01-31 21:03:00,
2013-01-31 15:08:00,60.5,32.0,30.21,NNE,13,3.0,5.0,34,0.00,,OVC,0.00,VWS V14.00,2013-01-31 21:08:00,
2013-01-31 15:13:00,60.2,31.8,30.21,WNW,296,1.0,7.0,34,0.00,,OVC,0.00,VWS V14.00,2013-01-31 21:13:00,
2013-01-31 15:18:00,60.2,31.8,30.21,NW,313,0.0,3.0,34,0.00,,OVC,0.00,VWS V14.00,2013-01-31 21:18:00,
2013-01-31 15:23:00,60.3,30.3,30.21,NW,319,2.0,7.0,32,0.00,,OVC,0.00,VWS V14.00,2013-01-31 21:23:00,
2013-01-31 15:28:00,60.1,30.9,30.21,NW,315,2.0,10.0,33,0.00,,OVC,0.00,VWS V14.00,2013-01-31 21:28:00,
2013-01-31 15:33:00,59.9,32.2,30.21,WNW,300,0.0,0.0,35,0.00,,OVC,0.00,VWS V14.00,2013-01-31 21:33:00,
2013-01-31 15:38:00,60.0,31.6,30.21,NW,308,0.0,3.0,34,0.00,,OVC,0.00,VWS V14.00,2013-01-31 21:38:00,
2013-01-31 15:43:00,59.9,32.2,30.21,NW,304,2.0,4.0,35,0.00,,OVC,0.00,VWS V14.00,2013-01-31 21:43:00,
2013-01-31 15:48:00,59.8,32.1,30.21,SW,228,0.0,0.0,35,0.00,,OVC,0.00,VWS V14.00,2013-01-31 21:48:00,
2013-01-31 15:53:00,59.8,31.4,30.21,North,9,0.0,0.0,34,0.00,,OVC,0.00,VWS V14.00,2013-01-31 21:53:00,
2013-01-31 15:58:00,59.7,32.0,30.21,North,5,0.0,1.0,35,0.00,,OVC,0.00,VWS V14.00,2013-01-31 21:58:00,
2013-01-31 16:03:00,59.5,31.1,30.21,North,360,1.0,3.0,34,0.00,,OVC,0.00,VWS V14.00,2013-01-31 22:03:00,
2013-01-31 16:08:00,59.1,31.5,30.22,North,9,1.0,1.0,35,0.00,,OVC,0.00,VWS V14.00,2013-01-31 22:08:00,
2013-01-31 16:13:00,58.6,31.0,30.22,NW,320,0.0,0.0,35,0.00,,OVC,0.00,VWS V14.00,2013-01-31 22:13:00,
2013-01-31 16:18:00,58.3,31.5,30.22,NW,316,0.0,0.0,36,0.00,,OVC,0.00,VWS V14.00,2013-01-31 22:18:00,
2013-01-31 16:23:00,58.0,31.2,30.22,NW,317,0.0,0.0,36,0.00,,OVC,0.00,VWS V14.00,2013-01-31 22:23:00,
2013-01-31 16:28:00,57.7,31.6,30.22,WSW,247,0.0,1.0,37,0.00,,OVC,0.00,VWS V14.00,2013-01-31 22:28:00,
2013-01-31 16:33:00,57.3,31.9,30.23,West,267,0.0,0.0,38,0.00,,OVC,0.00,VWS V14.00,2013-01-31 22:33:00,
2013-01-31 16:38:00,57.0,32.3,30.23,West,267,0.0,0.0,39,0.00,,OVC,0.00,VWS V14.00,2013-01-31 22:38:00,
2013-01-31 16:43:00,56.7,32.0,30.23,West,266,0.0,0.0,39,0.00,,OVC,0.00,VWS V14.00,2013-01-31 22:43:00,
2013-01-31 16:48:00,56.5,33.1,30.23,West,266,0.0,0.0,41,0.00,,OVC,0.00,VWS V14.00,2013-01-31 22:48:00,
2013-01-31 16:53:00,56.3,34.7,30.23,West,266,0.0,0.0,44,0.00,,OVC,0.00,VWS V14.00,2013-01-31 22:53:00,
2013-01-31 16:58:00,56.0,35.0,30.23,West,266,0.0,0.0,45,0.00,,OVC,0.00,VWS V14.00,2013-01-31 22:58:00,
2013-01-31 17:03:00,55.7,36.3,30.23,West,266,0.0,0.0,48,0.00,,OVC,0.00,VWS V14.00,2013-01-31 23:03:00,
2013-01-31 17:08:00,55.3,36.0,30.23,West,266,0.0,0.0,48,0.00,,OVC,0.00,VWS V14.00,2013-01-31 23:08:00,
2013-01-31 17:13:00,54.9,37.6,30.23,West,266,0.0,0.0,52,0.00,,OVC,0.00,VWS V14.00,2013-01-31 23:13:00,
2013-01-31 17:18:00,54.4,38.1,30.23,West,266,0.0,0.0,54,0.00,,OVC,0.00,VWS V14.00,2013-01-31 23:18:00,
2013-01-31 17:23:00,53.8,38.5,30.23,West,266,0.0,0.0,56,0.00,,OVC,0.00,VWS V14.00,2013-01-31 23:23:00,
2013-01-31 17:28:00,53.2,38.4,30.24,West,266,0.0,0.0,57,0.00,,OVC,0.00,VWS V14.00,2013-01-31 23:28:00,
2013-01-31 17:33:00,52.4,38.5,30.23,West,266,0.0,0.0,59,0.00,,OVC,0.00,VWS V14.00,2013-01-31 23:33:00,
2013-01-31 17:38:00,51.8,38.4,30.24,West,266,0.0,0.0,60,0.00,,OVC,0.00,VWS V14.00,2013-01-31 23:38:00,
2013-01-31 17:43:00,51.0,38.5,30.24,West,266,0.0,0.0,62,0.00,,OVC,0.00,VWS V14.00,2013-01-31 23:43:00,
2013-01-31 17:48:00,50.4,38.3,30.24,West,266,0.0,0.0,63,0.00,,OVC,0.00,VWS V14.00,2013-01-31 23:48:00,
2013-01-31 17:53:00,49.7,38.4,30.24,West,266,0.0,0.0,65,0.00,,OVC,0.00,VWS V14.00,2013-01-31 23:53:00,
2013-01-31 17:58:00,49.2,38.7,30.24,West,266,0.0,0.0,67,0.00,,OVC,0.00,VWS V14.00,2013-01-31 23:58:00,
2013-01-31 18:03:00,48.7,38.2,30.24,West,266,0.0,0.0,67,0.00,,OVC,0.00,VWS V14.00,2013-02-01 00:03:00,
2013-01-31 18:08:00,48.2,37.8,30.24,West,266,0.0,0.0,67,0.00,,OVC,0.00,VWS V14.00,2013-02-01 00:08:00,
2013-01-31 18:13:00,47.7,37.7,30.25,West,266,0.0,0.0,68,0.00,,OVC,0.00,VWS V14.00,2013-02-01 00:13:00,
2013-01-31 18:18:00,47.2,37.6,30.25,West,266,0.0,0.0,69,0.00,,OVC,0.00,VWS V14.00,2013-02-01 00:18:00,
2013-01-31 18:23:00,46.6,37.0,30.25,West,266,0.0,0.0,69,0.00,,OVC,0.00,VWS V14.00,2013-02-01 00:23:00,
2013-01-31 18:28:00,46.1,36.9,30.25,West,265,0.0,0.0,70,0.00,,OVC,0.00,VWS V14.00,2013-02-01 00:28:00,
2013-01-31 18:33:00,45.7,36.8,30.25,West,265,0.0,0.0,71,0.00,,OVC,0.00,VWS V14.00,2013-02-01 00:33:00,
2013-01-31 18:38:00,45.4,36.6,30.25,West,266,0.0,0.0,71,0.00,,OVC,0.00,VWS V14.00,2013-02-01 00:38:00,
2013-01-31 18:43:00,45.1,36.6,30.26,West,266,0.0,0.0,72,0.00,,OVC,0.00,VWS V14.00,2013-02-01 00:43:00,
2013-01-31 18:48:00,44.7,36.2,30.26,West,265,0.0,0.0,72,0.00,,OVC,0.00,VWS V14.00,2013-02-01 00:48:00,
2013-01-31 18:53:00,44.5,36.4,30.27,West,265,0.0,0.0,73,0.00,,OVC,0.00,VWS V14.00,2013-02-01 00:53:00,
2013-01-31 18:58:00,44.2,36.1,30.26,West,265,0.0,0.0,73,0.00,,OVC,0.00,VWS V14.00,2013-02-01 00:58:00,
2013-01-31 19:03:00,44.0,35.9,30.27,West,265,0.0,0.0,73,0.00,,OVC,0.00,VWS V14.00,2013-02-01 01:03:00,
2013-01-31 19:08:00,43.7,36.0,30.27,West,266,0.0,0.0,74,0.00,,OVC,0.00,VWS V14.00,2013-02-01 01:08:00,
2013-01-31 19:13:00,43.4,35.7,30.26,West,265,0.0,0.0,74,0.00,,OVC,0.00,VWS V14.00,2013-02-01 01:13:00,
2013-01-31 19:18:00,43.2,35.8,30.27,West,266,0.0,0.0,75,0.00,,OVC,0.00,VWS V14.00,2013-02-01 01:18:00,
2013-01-31 19:23:00,43.0,36.0,30.27,West,265,0.0,0.0,76,0.00,,OVC,0.00,VWS V14.00,2013-02-01 01:23:00,
2013-01-31 19:28:00,42.8,36.8,30.27,West,265,0.0,0.0,79,0.00,,OVC,0.00,VWS V14.00,2013-02-01 01:28:00,
2013-01-31 19:33:00,42.6,36.9,30.27,West,266,0.0,0.0,80,0.00,,OVC,0.00,VWS V14.00,2013-02-01 01:33:00,
2013-01-31 19:38:00,42.5,36.8,30.27,West,264,0.0,0.0,80,0.00,,OVC,0.00,VWS V14.00,2013-02-01 01:38:00,
2013-01-31 19:43:00,42.4,37.0,30.27,West,264,0.0,0.0,81,0.00,,OVC,0.00,VWS V14.00,2013-02-01 01:43:00,
2013-01-31 19:48:00,42.3,36.9,30.28,West,264,0.0,0.0,81,0.00,,OVC,0.00,VWS V14.00,2013-02-01 01:48:00,
2013-01-31 19:53:00,42.3,36.9,30.28,West,264,0.0,0.0,81,0.00,,OVC,0.00,VWS V14.00,2013-02-01 01:53:00,
2013-01-31 19:58:00,42.3,37.2,30.28,West,264,0.0,0.0,82,0.00,,OVC,0.00,VWS V14.00,2013-02-01 01:58:00,
2013-01-31 20:03:00,42.3,37.2,30.28,West,264,0.0,0.0,82,0.00,,OVC,0.00,VWS V14.00,2013-02-01 02:03:00,
2013-01-31 20:08:00,42.2,37.1,30.28,West,264,0.0,0.0,82,0.00,,OVC,0.00,VWS V14.00,2013-02-01 02:08:00,
2013-01-31 20:13:00,42.2,37.1,30.28,West,264,0.0,0.0,82,0.00,,OVC,0.00,VWS V14.00,2013-02-01 02:13:00,
2013-01-31 20:18:00,42.2,37.1,30.28,West,264,0.0,0.0,82,0.00,,OVC,0.00,VWS V14.00,2013-02-01 02:18:00,
2013-01-31 20:23:00,42.1,37.0,30.28,West,264,0.0,0.0,82,0.00,,OVC,0.00,VWS V14.00,2013-02-01 02:23:00,
2013-01-31 20:28:00,42.0,36.9,30.28,West,264,0.0,0.0,82,0.00,,OVC,0.00,VWS V14.00,2013-02-01 02:28:00,
2013-01-31 20:33:00,41.9,36.8,30.28,West,264,0.0,0.0,82,0.00,,OVC,0.00,VWS V14.00,2013-02-01 02:33:00,
2013-01-31 20:38:00,41.9,37.1,30.28,West,264,0.0,0.0,83,0.00,,OVC,0.00,VWS V14.00,2013-02-01 02:38:00,
2013-01-31 20:43:00,41.8,37.0,30.27,West,264,0.0,0.0,83,0.00,,OVC,0.00,VWS V14.00,2013-02-01 02:43:00,
2013-01-31 20:48:00,41.8,37.0,30.27,West,264,0.0,0.0,83,0.00,,OVC,0.00,VWS V14.00,2013-02-01 02:48:00,
2013-01-31 20:53:00,41.8,37.0,30.28,West,264,0.0,0.0,83,0.00,,OVC,0.00,VWS V14.00,2013-02-01 02:53:00,
2013-01-31 20:58:00,41.7,37.2,30.28,West,264,0.0,0.0,84,0.00,,OVC,0.00,VWS V14.00,2013-02-01 02:58:00,
2013-01-31 21:03:00,41.7,37.2,30.28,West,264,0.0,0.0,84,0.00,,OVC,0.00,VWS V14.00,2013-02-01 03:03:00,
2013-01-31 21:08:00,41.7,37.5,30.27,West,264,0.0,0.0,85,0.00,,OVC,0.00,VWS V14.00,2013-02-01 03:08:00,
2013-01-31 21:13:00,41.7,37.5,30.28,West,264,0.0,0.0,85,0.00,,OVC,0.00,VWS V14.00,2013-02-01 03:13:00,
2013-01-31 21:18:00,41.6,37.4,30.28,West,264,0.0,0.0,85,0.00,,OVC,0.00,VWS V14.00,2013-02-01 03:18:00,
2013-01-31 21:23:00,41.7,37.8,30.28,West,264,0.0,0.0,86,0.00,,OVC,0.00,VWS V14.00,2013-02-01 03:23:00,
2013-01-31 21:28:00,41.6,37.7,30.28,West,264,0.0,0.0,86,0.00,,OVC,0.00,VWS V14.00,2013-02-01 03:28:00,
2013-01-31 21:33:00,41.6,37.7,30.28,West,264,0.0,0.0,86,0.00,,OVC,0.00,VWS V14.00,2013-02-01 03:33:00,
2013-01-31 21:38:00,41.5,37.6,30.28,West,264,0.0,0.0,86,0.00,,OVC,0.00,VWS V14.00,2013-02-01 03:38:00,
2013-01-31 21:43:00,41.5,37.6,30.28,West,264,0.0,0.0,86,0.00,,OVC,0.00,VWS V14.00,2013-02-01 03:43:00,
2013-01-31 21:48:00,41.4,37.5,30.28,West,264,0.0,0.0,86,0.00,,OVC,0.00,VWS V14.00,2013-02-01 03:48:00,
2013-01-31 21:53:00,41.3,37.4,30.28,West,264,0.0,0.0,86,0.00,,OVC,0.00,VWS V14.00,2013-02-01 03:53:00,
2013-01-31 21:58:00,41.2,37.3,30.28,West,264,0.0,0.0,86,0.00,,OVC,0.00,VWS V14.00,2013-02-01 03:58:00,
2013-01-31 22:03:00,41.1,37.2,30.29,West,264,0.0,0.0,86,0.00,,OVC,0.00,VWS V14.00,2013-02-01 04:03:00,
2013-01-31 22:08:00,41.0,37.4,30.29,West,264,0.0,0.0,87,0.00,,OVC,0.00,VWS V14.00,2013-02-01 04:08:00,
2013-01-31 22:13:00,40.8,37.2,30.29,West,264,0.0,0.0,87,0.00,,OVC,0.00,VWS V14.00,2013-02-01 04:13:00,
2013-01-31 22:18:00,40.7,37.1,30.29,West,264,0.0,0.0,87,0.00,,OVC,0.00,VWS V14.00,2013-02-01 04:18:00,
2013-01-31 22:23:00,40.6,37.0,30.29,West,264,0.0,0.0,87,0.00,,OVC,0.00,VWS V14.00,2013-02-01 04:23:00,
2013-01-31 22:28:00,40.5,36.9,30.29,West,264,0.0,0.0,87,0.00,,OVC,0.00,VWS V14.00,2013-02-01 04:28:00,
2013-01-31 22:33:00,40.4,36.8,30.29,West,264,0.0,0.0,87,0.00,,OVC,0.00,VWS V14.00,2013-02-01 04:33:00,
2013-01-31 22:38:00,40.3,36.8,30.30,West,264,0.0,0.0,87,0.00,,OVC,0.00,VWS V14.00,2013-02-01 04:38:00,
2013-01-31 22:43:00,40.2,36.7,30.30,West,264,0.0,0.0,87,0.00,,OVC,0.00,VWS V14.00,2013-02-01 04:43:00,
2013-01-31 22:48:00,40.1,36.8,30.31,West,264,0.0,0.0,88,0.00,,OVC,0.00,VWS V14.00,2013-02-01 04:48:00,
2013-01-31 22:53:00,40.1,36.8,30.31,West,264,0.0,0.0,88,0.00,,OVC,0.00,VWS V14.00,2013-02-01 04:53:00,
2013-01-31 22:58:00,40.0,36.7,30.30,West,264,0.0,0.0,88,0.00,,OVC,0.00,VWS V14.00,2013-02-01 04:58:00,
2013-01-31 23:00:00,40.0,36.7,30.30,West,264,0.0,0.0,88,0.00,,OVC,0.00,VWS V14.00,2013-02-01 05:00:00,
2013-01-31 23:01:00,40.0,36.7,30.30,West,264,0.0,0.0,88,0.00,,OVC,0.00,VWS V14.00,2013-02-01 05:01:00,
2013-01-31 23:06:00,39.9,36.9,30.31,West,264,0.0,0.0,89,0.00,,OVC,0.00,VWS V14.00,2013-02-01 05:06:00,
2013-01-31 23:11:00,39.8,36.8,30.31,West,264,0.0,0.0,89,0.00,,OVC,0.00,VWS V14.00,2013-02-01 05:11:00,
2013-01-31 23:16:00,39.8,36.8,30.31,West,264,0.0,0.0,89,0.00,,OVC,0.00,VWS V14.00,2013-02-01 05:16:00,
2013-01-31 23:21:00,39.7,36.7,30.31,West,264,0.0,0.0,89,0.00,,OVC,0.00,VWS V14.00,2013-02-01 05:21:00,
2013-01-31 23:26:00,39.8,37.1,30.31,West,264,0.0,0.0,90,0.00,,OVC,0.00,VWS V14.00,2013-02-01 05:26:00,
2013-01-31 23:31:00,39.8,37.1,30.31,West,264,0.0,0.0,90,0.00,,OVC,0.00,VWS V14.00,2013-02-01 05:31:00,
2013-01-31 23:36:00,39.8,37.1,30.31,West,264,0.0,0.0,90,0.00,,OVC,0.00,VWS V14.00,2013-02-01 05:36:00,
2013-01-31 23:41:00,39.7,37.3,30.30,West,264,0.0,0.0,91,0.00,,OVC,0.00,VWS V14.00,2013-02-01 05:41:00,
2013-01-31 23:46:00,39.7,37.3,30.31,West,264,0.0,0.0,91,0.00,,OVC,0.00,VWS V14.00,2013-02-01 05:46:00,
2013-01-31 23:51:00,39.6,37.2,30.30,West,264,0.0,0.0,91,0.00,,OVC,0.00,VWS V14.00,2013-02-01 05:51:00,
2013-01-31 23:56:00,39.5,37.1,30.31,West,264,0.0,0.0,91,0.00,,OVC,0.00,VWS V14.00,2013-02-01 05:56:00,